createdAt,value
2018-03-11T00:00:57.740Z,93342.78
2018-03-11T00:03:24.063Z,93341.56
2018-03-11T00:05:50.385Z,93347.20
2018-03-11T00:08:17.034Z,93347.37
2018-03-11T00:10:43.424Z,93349.20
2018-03-11T00:13:09.775Z,93350.86
2018-03-11T00:15:36.104Z,93349.12
2018-03-11T00:18:02.615Z,93351.64
2018-03-11T00:20:28.947Z,93356.78
2018-03-11T00:22:55.327Z,93351.15
2018-03-11T00:25:21.768Z,93347.72
2018-03-11T00:27:48.138Z,93349.83
2018-03-11T00:30:14.467Z,93351.75
2018-03-11T00:32:40.970Z,93348.94
2018-03-11T00:35:07.326Z,93350.98
2018-03-11T00:37:33.740Z,93351.03
2018-03-11T00:40:00.122Z,93352.14
2018-03-11T00:42:26.569Z,93352.89
2018-03-11T00:44:52.873Z,93349.22
2018-03-11T00:47:19.271Z,93347.98
2018-03-11T00:49:45.589Z,93343.28
2018-03-11T00:52:11.970Z,93353.89
2018-03-11T00:54:38.290Z,93348.55
2018-03-11T00:57:04.627Z,93350.77
2018-03-11T00:59:30.970Z,93345.36
2018-03-11T01:01:57.377Z,93344.95
2018-03-11T01:04:23.715Z,93347.83
2018-03-11T01:06:50.196Z,93347.27
2018-03-11T01:09:16.542Z,93342.33
2018-03-11T01:11:42.880Z,93344.67
2018-03-11T01:14:09.387Z,93337.80
2018-03-11T01:16:35.734Z,93331.48
2018-03-11T01:19:02.151Z,93339.50
2018-03-11T01:21:28.482Z,93339.25
2018-03-11T01:23:54.953Z,93338.16
2018-03-11T01:26:21.288Z,93333.44
2018-03-11T01:28:47.611Z,93325.42
2018-03-11T01:31:14.091Z,93319.55
2018-03-11T01:33:40.470Z,93322.78
2018-03-11T01:36:06.852Z,93321.05
2018-03-11T01:38:33.238Z,93319.19
2018-03-11T01:40:59.713Z,93318.61
2018-03-11T01:43:26.117Z,93312.27
2018-03-11T01:45:52.472Z,93307.63
2018-03-11T01:48:18.806Z,93303.81
2018-03-11T01:50:45.126Z,93303.39
2018-03-11T01:53:11.717Z,93297.60
2018-03-11T01:55:38.212Z,93298.38
2018-03-11T01:58:04.605Z,93300.83
2018-03-11T02:00:30.981Z,93297.68
2018-03-11T02:02:57.360Z,93289.91
2018-03-11T02:05:23.701Z,93289.44
2018-03-11T02:07:50.034Z,93299.05
2018-03-11T02:10:16.401Z,93300.84
2018-03-11T02:12:42.790Z,93300.06
2018-03-11T02:15:09.166Z,93300.77
2018-03-11T02:17:35.475Z,93298.06
2018-03-11T02:20:01.800Z,93294.98
2018-03-11T02:22:28.264Z,93291.89
2018-03-11T02:24:54.581Z,93293.62
2018-03-11T02:27:20.917Z,93290.62
2018-03-11T02:29:47.382Z,93288.33
2018-03-11T02:32:13.772Z,93284.84
2018-03-11T02:34:40.090Z,93283.09
2018-03-11T02:37:06.506Z,93284.88
2018-03-11T02:39:32.872Z,93286.98
2018-03-11T02:41:59.282Z,93284.92
2018-03-11T02:44:25.675Z,93287.88
2018-03-11T02:46:52.015Z,93286.64
2018-03-11T02:49:18.328Z,93280.61
2018-03-11T02:51:44.813Z,93291.28
2018-03-11T02:54:11.129Z,93299.02
2018-03-11T02:56:37.444Z,93301.75
2018-03-11T02:59:03.843Z,93299.88
2018-03-11T03:01:30.237Z,93299.55
2018-03-11T03:03:56.565Z,93296.33
2018-03-11T03:06:22.847Z,93292.81
2018-03-11T03:08:49.188Z,93300.87
2018-03-11T03:11:15.557Z,93300.98
2018-03-11T03:13:41.962Z,93294.89
2018-03-11T03:16:08.290Z,93301.63
2018-03-11T03:18:34.633Z,93308.03
2018-03-11T03:21:01.027Z,93308.72
2018-03-11T03:23:27.420Z,93304.78
2018-03-11T03:25:53.773Z,93305.05
2018-03-11T03:28:20.108Z,93302.39
2018-03-11T03:30:46.553Z,93310.13
2018-03-11T03:33:12.984Z,93303.26
2018-03-11T03:35:39.324Z,93297.81
2018-03-11T03:38:05.691Z,93303.84
2018-03-11T03:40:32.006Z,93307.33
2018-03-11T03:42:58.420Z,93305.20
2018-03-11T03:45:24.770Z,93309.21
2018-03-11T03:47:51.065Z,93308.17
2018-03-11T03:50:17.503Z,93307.34
2018-03-11T03:52:43.923Z,93304.33
2018-03-11T03:55:10.215Z,93307.83
2018-03-11T03:57:36.532Z,93310.02
2018-03-11T04:00:02.912Z,93317.04
2018-03-11T04:02:29.349Z,93329.89
2018-03-11T04:04:55.757Z,93334.88
2018-03-11T04:07:22.081Z,93333.83
2018-03-11T04:09:48.372Z,93328.88
2018-03-11T04:12:14.949Z,93332.72
2018-03-11T04:14:41.260Z,93328.68
2018-03-11T04:17:07.548Z,93331.28
2018-03-11T04:19:33.910Z,93336.16
2018-03-11T04:22:00.322Z,93329.84
2018-03-11T04:24:26.707Z,93328.43
2018-03-11T04:26:53.103Z,93326.74
2018-03-11T04:29:19.424Z,93325.42
2018-03-11T04:31:46.051Z,93332.73
2018-03-11T04:34:12.479Z,93337.52
2018-03-11T04:36:38.811Z,93338.52
2018-03-11T04:39:05.217Z,93338.87
2018-03-11T04:41:31.595Z,93340.48
2018-03-11T04:43:57.987Z,93333.27
2018-03-11T04:46:24.300Z,93333.00
2018-03-11T04:48:50.643Z,93333.49
2018-03-11T04:51:17.018Z,93336.73
2018-03-11T04:53:43.502Z,93333.86
2018-03-11T04:56:10.035Z,93338.48
2018-03-11T04:58:36.338Z,93337.24
2018-03-11T05:01:03.010Z,93335.46
2018-03-11T05:03:29.452Z,93339.10
2018-03-11T05:05:55.785Z,93342.13
2018-03-11T05:08:22.152Z,93329.44
2018-03-11T05:10:48.491Z,93325.88
2018-03-11T05:13:15.020Z,93331.58
2018-03-11T05:15:41.345Z,93337.78
2018-03-11T05:18:07.727Z,93337.66
2018-03-11T05:20:34.038Z,93339.34
2018-03-11T05:23:00.532Z,93347.19
2018-03-11T05:25:26.916Z,93349.59
2018-03-11T05:27:53.228Z,93354.70
2018-03-11T05:30:19.613Z,93357.66
2018-03-11T05:32:46.012Z,93356.58
2018-03-11T05:35:12.336Z,93355.90
2018-03-11T05:37:38.672Z,93358.16
2018-03-11T05:40:05.114Z,93364.39
2018-03-11T05:42:31.557Z,93368.13
2018-03-11T05:44:57.870Z,93362.08
2018-03-11T05:47:24.244Z,93358.81
2018-03-11T05:49:50.608Z,93364.84
2018-03-11T05:52:17.101Z,93366.23
2018-03-11T05:54:43.525Z,93364.88
2018-03-11T05:57:09.818Z,93376.05
2018-03-11T05:59:36.317Z,93376.77
2018-03-11T06:02:03.759Z,93360.56
2018-03-11T06:04:30.086Z,93361.21
2018-03-11T06:06:56.558Z,93370.95
2018-03-11T06:09:23.108Z,93376.42
2018-03-11T06:11:50.001Z,93376.01
2018-03-11T06:14:33.937Z,93370.84
2018-03-11T06:17:00.265Z,93372.34
2018-03-11T06:19:26.646Z,93370.50
2018-03-11T06:21:53.089Z,93376.41
2018-03-11T06:24:19.532Z,93375.19
2018-03-11T06:26:45.850Z,93381.86
2018-03-11T06:29:12.230Z,93384.58
2018-03-11T06:31:38.543Z,93388.92
2018-03-11T06:34:05.346Z,93393.58
2018-03-11T06:36:31.728Z,93392.50
2018-03-11T06:38:58.174Z,93390.18
2018-03-11T06:41:24.957Z,93388.48
2018-03-11T06:43:51.658Z,93389.73
2018-03-11T06:46:18.153Z,93388.39
2018-03-11T06:48:44.483Z,93395.14
2018-03-11T06:51:10.854Z,93389.34
2018-03-11T06:53:37.516Z,93385.81
2018-03-11T06:56:03.878Z,93391.81
2018-03-11T06:58:30.268Z,93391.50
2018-03-11T07:00:56.664Z,93391.69
2018-03-11T07:03:23.152Z,93389.66
2018-03-11T07:05:49.648Z,93385.37
2018-03-11T07:08:16.298Z,93380.42
2018-03-11T07:10:42.617Z,93376.89
2018-03-11T07:13:09.065Z,93375.78
2018-03-11T07:15:35.785Z,93373.25
2018-03-11T07:18:02.310Z,93372.22
2018-03-11T07:20:28.789Z,93373.46
2018-03-11T07:22:55.111Z,93368.89
2018-03-11T07:25:21.436Z,93382.89
2018-03-11T07:27:47.911Z,93384.96
2018-03-11T07:30:14.318Z,93381.41
2018-03-11T07:32:40.840Z,93369.79
2018-03-11T07:35:07.225Z,93367.77
2018-03-11T07:37:33.552Z,93363.92
2018-03-11T07:39:59.925Z,93364.20
2018-03-11T07:42:26.354Z,93368.80
2018-03-11T07:44:52.713Z,93368.42
2018-03-11T07:47:19.084Z,93368.08
2018-03-11T07:49:45.906Z,93362.46
2018-03-11T07:52:12.231Z,93360.80
2018-03-11T07:54:38.634Z,93353.68
2018-03-11T07:57:05.222Z,93358.08
2018-03-11T07:59:31.666Z,93354.55
2018-03-11T08:01:58.071Z,93357.94
2018-03-11T08:04:24.683Z,93360.41
2018-03-11T08:06:51.005Z,93358.19
2018-03-11T08:09:17.445Z,93355.45
2018-03-11T08:11:44.005Z,93359.34
2018-03-11T08:14:10.436Z,93354.70
2018-03-11T08:16:36.892Z,93356.36
2018-03-11T08:19:03.246Z,93355.05
2018-03-11T08:21:29.608Z,93352.67
2018-03-11T08:23:56.162Z,93347.95
2018-03-11T08:26:22.946Z,93344.59
2018-03-11T08:28:49.745Z,93343.13
2018-03-11T08:31:16.164Z,93345.46
2018-03-11T08:33:42.973Z,93349.28
2018-03-11T08:36:09.403Z,93349.36
2018-03-11T08:38:35.719Z,93352.16
2018-03-11T08:41:02.052Z,93347.25
2018-03-11T08:43:28.420Z,93347.87
2018-03-11T08:45:54.888Z,93342.88
2018-03-11T08:48:21.546Z,93334.22
2018-03-11T08:50:47.931Z,93338.48
2018-03-11T08:53:14.424Z,93340.88
2018-03-11T08:55:40.817Z,93344.34
2018-03-11T08:58:07.346Z,93344.81
2018-03-11T09:00:33.756Z,93336.44
2018-03-11T09:03:00.204Z,93337.49
2018-03-11T09:05:26.577Z,93335.34
2018-03-11T09:07:52.914Z,93337.37
2018-03-11T09:10:19.319Z,93346.89
2018-03-11T09:12:45.842Z,93343.64
2018-03-11T09:15:12.194Z,93336.75
2018-03-11T09:17:38.648Z,93331.44
2018-03-11T09:20:05.061Z,93336.09
2018-03-11T09:22:31.434Z,93336.41
2018-03-11T09:24:57.810Z,93329.47
2018-03-11T09:27:24.246Z,93333.73
2018-03-11T09:29:50.600Z,93336.16
2018-03-11T09:32:16.921Z,93327.56
2018-03-11T09:34:43.398Z,93334.91
2018-03-11T09:37:09.862Z,93334.09
2018-03-11T09:39:36.218Z,93330.69
2018-03-11T09:42:02.649Z,93329.99
2018-03-11T09:44:29.309Z,93330.29
2018-03-11T09:46:55.776Z,93329.38
2018-03-11T09:49:22.228Z,93329.73
2018-03-11T09:51:48.809Z,93329.93
2018-03-11T09:54:15.518Z,93332.55
2018-03-11T09:56:41.995Z,93325.45
2018-03-11T09:59:08.407Z,93318.33
2018-03-11T10:01:34.764Z,93312.25
2018-03-11T10:04:01.844Z,93308.80
2018-03-11T10:06:28.589Z,93307.83
2018-03-11T10:08:55.095Z,93307.18
2018-03-11T10:11:21.534Z,93302.00
2018-03-11T10:13:47.955Z,93301.95
2018-03-11T10:16:14.925Z,93309.47
2018-03-11T10:18:41.890Z,93307.93
2018-03-11T10:21:08.553Z,93296.13
2018-03-11T10:23:35.158Z,93285.97
2018-03-11T10:26:01.660Z,93285.41
2018-03-11T10:28:28.455Z,93285.53
2018-03-11T10:30:55.291Z,93279.73
2018-03-11T10:33:22.006Z,93280.01
2018-03-11T10:35:48.590Z,93282.25
2018-03-11T10:38:15.265Z,93280.19
2018-03-11T10:40:41.890Z,93271.59
2018-03-11T10:43:09.112Z,93268.14
2018-03-11T10:45:35.691Z,93275.81
2018-03-11T10:48:02.218Z,93269.41
2018-03-11T10:50:28.730Z,93260.55
2018-03-11T10:52:55.703Z,93248.37
2018-03-11T10:55:22.653Z,93248.56
2018-03-11T10:57:49.053Z,93258.52
2018-03-11T11:00:16.320Z,93256.33
2018-03-11T11:02:42.800Z,93256.59
2018-03-11T11:05:09.349Z,93244.37
2018-03-11T11:07:35.791Z,93246.48
2018-03-11T11:10:02.265Z,93240.39
2018-03-11T11:12:28.851Z,93228.38
2018-03-11T11:14:55.514Z,93229.42
2018-03-11T11:17:21.984Z,93237.03
2018-03-11T11:19:48.433Z,93218.90
2018-03-11T11:22:14.807Z,93213.34
2018-03-11T11:24:41.797Z,93207.88
2018-03-11T11:27:08.231Z,93205.07
2018-03-11T11:29:34.639Z,93195.22
2018-03-11T11:32:01.047Z,93194.34
2018-03-11T11:34:27.548Z,93202.92
2018-03-11T11:36:53.907Z,93196.48
2018-03-11T11:39:21.083Z,93186.06
2018-03-11T11:41:47.902Z,93188.90
2018-03-11T11:44:14.420Z,93186.39
2018-03-11T11:46:40.873Z,93189.69
2018-03-11T11:49:07.338Z,93181.86
2018-03-11T11:51:33.849Z,93180.34
2018-03-11T11:54:00.667Z,93168.59
2018-03-11T11:56:27.458Z,93172.86
2018-03-11T11:58:54.023Z,93166.19
2018-03-11T12:01:20.527Z,93166.41
2018-03-11T12:03:47.252Z,93158.88
2018-03-11T12:06:13.837Z,93167.87
2018-03-11T12:08:40.413Z,93158.56
2018-03-11T12:11:06.899Z,93157.45
2018-03-11T12:13:33.513Z,93152.13
2018-03-11T12:16:00.063Z,93143.18
2018-03-11T12:18:26.494Z,93145.19
2018-03-11T12:20:53.112Z,93137.62
2018-03-11T12:23:19.881Z,93135.84
2018-03-11T12:25:46.726Z,93131.63
2018-03-11T12:28:13.924Z,93135.05
2018-03-11T12:30:40.572Z,93136.17
2018-03-11T12:33:07.039Z,93128.31
2018-03-11T12:35:33.903Z,93128.72
2018-03-11T12:38:00.923Z,93122.78
2018-03-11T12:40:27.966Z,93117.50
2018-03-11T12:42:54.744Z,93106.05
2018-03-11T12:45:21.237Z,93113.30
2018-03-11T12:47:48.137Z,93111.08
2018-03-11T12:50:14.557Z,93110.22
2018-03-11T12:52:41.256Z,93113.46
2018-03-11T12:55:07.969Z,93102.97
2018-03-11T12:57:34.380Z,93095.67
2018-03-11T13:00:00.864Z,93102.41
2018-03-11T13:02:27.467Z,93099.97
2018-03-11T13:04:54.107Z,93093.89
2018-03-11T13:07:20.589Z,93100.29
2018-03-11T13:09:47.112Z,93099.31
2018-03-11T13:12:13.753Z,93095.11
2018-03-11T13:14:40.306Z,93094.00
2018-03-11T13:17:06.692Z,93094.45
2018-03-11T13:19:33.523Z,93092.91
2018-03-11T13:22:00.095Z,93086.13
2018-03-11T13:24:27.975Z,93087.85
2018-03-11T13:26:54.607Z,93082.08
2018-03-11T13:29:21.881Z,93083.70
2018-03-11T13:31:48.518Z,93078.19
2018-03-11T13:34:26.391Z,93083.55
2018-03-11T13:36:52.953Z,93075.95
2018-03-11T13:39:32.069Z,93071.94
2018-03-11T13:41:58.940Z,93067.48
2018-03-11T13:44:25.523Z,93066.56
2018-03-11T13:47:10.939Z,93073.00
2018-03-11T13:49:37.603Z,93070.14
2018-03-11T13:52:16.294Z,93066.50
2018-03-11T13:54:42.919Z,93065.84
2018-03-11T14:00:06.319Z,93056.68
2018-03-11T14:02:33.148Z,93051.09
2018-03-11T14:04:59.908Z,93045.57
2018-03-11T14:07:26.390Z,93052.37
2018-03-11T14:09:52.843Z,93043.39
2018-03-11T14:12:19.410Z,93036.97
2018-03-11T14:14:45.991Z,93036.52
2018-03-11T14:17:12.584Z,93037.41
2018-03-11T14:19:39.054Z,93042.46
2018-03-11T14:22:06.564Z,93042.06
2018-03-11T14:24:33.793Z,93040.53
2018-03-11T14:27:02.414Z,93042.79
2018-03-11T14:29:29.280Z,93036.61
2018-03-11T14:31:55.715Z,93038.55
2018-03-11T14:34:22.147Z,93037.52
2018-03-11T14:36:48.578Z,93044.17
2018-03-11T14:39:15.095Z,93042.77
2018-03-11T14:41:41.827Z,93044.88
2018-03-11T14:44:08.264Z,93040.30
2018-03-11T14:46:34.743Z,93038.72
2018-03-11T14:49:01.134Z,93038.17
2018-03-11T14:51:27.785Z,93033.70
2018-03-11T14:53:54.447Z,93038.69
2018-03-11T14:56:21.029Z,93040.77
2018-03-11T14:58:47.505Z,93039.47
2018-03-11T15:01:13.988Z,93035.60
2018-03-11T15:03:40.659Z,93041.83
2018-03-11T15:06:07.171Z,93044.19
2018-03-11T15:08:33.642Z,93046.88
2018-03-11T15:11:01.389Z,93051.59
2018-03-11T15:13:27.988Z,93044.57
2018-03-11T15:15:54.358Z,93047.48
2018-03-11T15:18:20.765Z,93044.29
2018-03-11T15:20:47.641Z,93039.00
2018-03-11T15:23:14.305Z,93038.70
2018-03-11T15:25:40.774Z,93046.61
2018-03-11T15:28:07.251Z,93047.69
2018-03-11T15:30:33.701Z,93041.41
2018-03-11T15:33:00.277Z,93045.64
2018-03-11T15:35:26.954Z,93045.20
2018-03-11T15:37:53.427Z,93040.27
2018-03-11T15:40:19.759Z,93046.21
2018-03-11T15:42:46.128Z,93050.09
2018-03-11T15:45:12.639Z,93047.80
2018-03-11T15:47:39.080Z,93046.97
2018-03-11T15:50:05.623Z,93047.42
2018-03-11T15:52:32.069Z,93048.64
2018-03-11T15:54:58.810Z,93047.75
2018-03-11T15:57:25.208Z,93052.53
2018-03-11T15:59:51.650Z,93051.96
2018-03-11T16:02:18.194Z,93054.09
2018-03-11T16:04:44.723Z,93053.34
2018-03-11T16:07:11.642Z,93051.00
2018-03-11T16:09:38.267Z,93044.81
2018-03-11T16:12:04.945Z,93053.80
2018-03-11T16:14:31.516Z,93055.72
2018-03-11T16:16:58.070Z,93050.56
2018-03-11T16:19:25.015Z,93058.59
2018-03-11T16:21:51.894Z,93060.05
2018-03-11T16:24:28.381Z,93058.08
2018-03-11T16:26:44.859Z,93057.44
2018-03-11T16:29:11.261Z,93061.97
2018-03-11T16:31:37.714Z,93064.42
2018-03-11T16:34:04.170Z,93063.44
2018-03-11T16:36:30.703Z,93064.53
2018-03-11T16:38:57.056Z,93069.39
2018-03-11T16:41:23.431Z,93069.83
2018-03-11T16:43:49.978Z,93066.39
2018-03-11T16:46:16.435Z,93067.88
2018-03-11T16:48:43.001Z,93071.95
2018-03-11T16:51:09.879Z,93075.84
2018-03-11T16:53:36.533Z,93077.61
2018-03-11T16:56:03.351Z,93078.34
2018-03-11T16:58:29.934Z,93079.92
2018-03-11T17:00:56.314Z,93076.79
2018-03-11T17:03:22.668Z,93073.29
2018-03-11T17:05:49.260Z,93075.11
2018-03-11T17:08:15.672Z,93084.06
2018-03-11T17:10:42.039Z,93081.42
2018-03-11T17:13:08.806Z,93079.33
2018-03-11T17:15:35.347Z,93082.52
2018-03-11T17:18:01.851Z,93088.04
2018-03-11T17:20:28.591Z,93091.11
2018-03-11T17:22:55.388Z,93086.09
2018-03-11T17:25:22.076Z,93093.09
2018-03-11T17:27:48.812Z,93095.23
2018-03-11T17:30:15.470Z,93095.95
2018-03-11T17:32:41.993Z,93089.66
2018-03-11T17:35:08.639Z,93086.56
2018-03-11T17:37:35.129Z,93091.50
2018-03-11T17:40:01.599Z,93090.55
2018-03-11T17:42:29.089Z,93101.38
2018-03-11T17:44:55.792Z,93102.81
2018-03-11T17:47:22.605Z,93097.51
2018-03-11T17:49:49.151Z,93096.62
2018-03-11T17:52:16.008Z,93097.55
2018-03-11T17:54:42.948Z,93104.94
2018-03-11T17:57:09.585Z,93103.75
2018-03-11T17:59:36.372Z,93106.66
2018-03-11T18:02:03.233Z,93107.23
2018-03-11T18:04:30.088Z,93111.76
2018-03-11T18:06:56.783Z,93112.59
2018-03-11T18:09:23.439Z,93107.05
2018-03-11T18:11:50.227Z,93113.59
2018-03-11T18:14:19.205Z,93118.45
2018-03-11T18:16:45.980Z,93119.74
2018-03-11T18:19:12.806Z,93117.50
2018-03-11T18:21:39.552Z,93120.34
2018-03-11T18:24:06.445Z,93122.20
2018-03-11T18:26:33.185Z,93114.64
2018-03-11T18:29:00.120Z,93115.87
2018-03-11T18:31:26.761Z,93116.93
2018-03-11T18:33:53.593Z,93120.00
2018-03-11T18:36:20.276Z,93119.64
2018-03-11T18:38:46.967Z,93119.73
2018-03-11T18:41:13.703Z,93119.52
2018-03-11T18:43:40.358Z,93121.28
2018-03-11T18:46:06.912Z,93127.14
2018-03-11T18:48:33.826Z,93123.17
2018-03-11T18:51:01.023Z,93125.80
2018-03-11T18:53:28.068Z,93127.86
2018-03-11T18:55:54.971Z,93125.28
2018-03-11T18:58:22.505Z,93129.44
2018-03-11T19:00:49.319Z,93129.02
2018-03-11T19:03:16.032Z,93127.59
2018-03-11T19:05:43.017Z,93136.36
2018-03-11T19:08:10.005Z,93133.64
2018-03-11T19:10:36.818Z,93139.34
2018-03-11T19:13:03.663Z,93138.69
2018-03-11T19:15:30.558Z,93128.39
2018-03-11T19:17:57.779Z,93126.31
2018-03-11T19:20:24.533Z,93135.55
2018-03-11T19:22:51.280Z,93126.87
2018-03-11T19:25:18.150Z,93134.80
2018-03-11T19:27:45.051Z,93132.38
2018-03-11T19:30:11.832Z,93139.33
2018-03-11T19:32:38.847Z,93141.04
2018-03-11T19:35:05.996Z,93147.16
2018-03-11T19:37:32.666Z,93132.80
2018-03-11T19:39:59.684Z,93137.89
2018-03-11T19:42:26.599Z,93147.45
2018-03-11T19:44:53.415Z,93140.88
2018-03-11T19:47:20.118Z,93139.49
2018-03-11T19:49:47.037Z,93141.90
2018-03-11T19:52:13.904Z,93141.20
2018-03-11T19:54:40.707Z,93149.02
2018-03-11T19:57:07.699Z,93145.61
2018-03-11T19:59:34.914Z,93151.73
2018-03-11T20:02:02.326Z,93147.67
2018-03-11T20:04:29.145Z,93142.75
2018-03-11T20:06:56.346Z,93150.89
2018-03-11T20:09:22.975Z,93149.87
2018-03-11T20:11:49.745Z,93152.86
2018-03-11T20:14:16.576Z,93145.62
2018-03-11T20:16:44.300Z,93155.39
2018-03-11T20:19:11.128Z,93150.37
2018-03-11T20:21:37.821Z,93144.92
2018-03-11T20:24:04.713Z,93152.49
2018-03-11T20:26:31.343Z,93147.53
2018-03-11T20:28:57.999Z,93153.22
2018-03-11T20:31:24.596Z,93156.69
2018-03-11T20:33:51.158Z,93163.81
2018-03-11T20:36:17.916Z,93172.84
2018-03-11T20:38:44.450Z,93179.37
2018-03-11T20:41:10.941Z,93176.11
2018-03-11T20:43:37.456Z,93169.44
2018-03-11T20:46:04.053Z,93176.16
2018-03-11T20:48:30.660Z,93172.52
2018-03-11T20:50:57.128Z,93177.72
2018-03-11T20:53:24.102Z,93185.47
2018-03-11T20:55:51.216Z,93179.77
2018-03-11T20:58:17.697Z,93176.95
2018-03-11T21:00:44.645Z,93178.44
2018-03-11T21:03:11.137Z,93177.02
2018-03-11T21:05:37.943Z,93172.08
2018-03-11T21:08:04.472Z,93166.20
2018-03-11T21:10:31.032Z,93165.84
2018-03-11T21:12:57.519Z,93160.41
2018-03-11T21:15:24.391Z,93164.64
2018-03-11T21:17:51.006Z,93170.32
2018-03-11T21:20:17.790Z,93169.78
2018-03-11T21:22:44.301Z,93171.20
2018-03-11T21:25:11.977Z,93161.75
2018-03-11T21:27:39.376Z,93161.44
2018-03-11T21:30:06.251Z,93164.59
2018-03-11T21:32:33.870Z,93164.97
2018-03-11T21:35:00.974Z,93161.24
2018-03-11T21:37:27.844Z,93165.83
2018-03-11T21:39:55.003Z,93165.01
2018-03-11T21:42:21.491Z,93167.50
2018-03-11T21:44:48.513Z,93167.67
2018-03-11T21:47:14.997Z,93162.88
2018-03-11T21:49:41.477Z,93165.21
2018-03-11T21:52:07.899Z,93158.32
2018-03-11T21:54:34.728Z,93161.84
2018-03-11T21:57:01.154Z,93157.09
2018-03-11T21:59:27.574Z,93154.52
2018-03-11T22:01:53.987Z,93145.67
2018-03-11T22:04:20.430Z,93147.66
2018-03-11T22:06:46.784Z,93147.45
2018-03-11T22:09:13.321Z,93144.24
2018-03-11T22:11:39.723Z,93156.80
2018-03-11T22:14:06.123Z,93152.62
2018-03-11T22:16:32.502Z,93155.06
2018-03-11T22:18:58.926Z,93152.77
2018-03-11T22:21:25.250Z,93142.91
2018-03-11T22:23:52.257Z,93145.43
2018-03-11T22:26:18.679Z,93147.98
2018-03-11T22:28:45.046Z,93143.46
2018-03-11T22:31:11.452Z,93152.73
2018-03-11T22:33:37.835Z,93158.64
2018-03-11T22:36:04.363Z,93159.98
2018-03-11T22:38:31.079Z,93157.90
2018-03-11T22:40:57.400Z,93162.25
2018-03-11T22:43:23.761Z,93161.72
2018-03-11T22:45:50.166Z,93161.80
2018-03-11T22:48:16.813Z,93155.03
2018-03-11T22:50:43.263Z,93156.02
2018-03-11T22:53:09.594Z,93160.59
2018-03-11T22:55:35.972Z,93166.56
2018-03-11T22:58:02.656Z,93162.98
2018-03-11T23:00:29.078Z,93161.66
2018-03-11T23:02:55.525Z,93162.79
2018-03-11T23:05:22.097Z,93159.97
2018-03-11T23:07:48.927Z,93154.84
2018-03-11T23:10:15.423Z,93156.11
2018-03-11T23:12:41.809Z,93155.48
2018-03-11T23:15:08.318Z,93149.09
2018-03-11T23:17:34.953Z,93147.67
2018-03-11T23:20:01.631Z,93141.19
2018-03-11T23:22:28.123Z,93137.43
2018-03-11T23:24:54.535Z,93128.45
2018-03-11T23:27:20.903Z,93121.88
2018-03-11T23:29:47.385Z,93121.48
2018-03-11T23:32:13.760Z,93119.72
2018-03-11T23:34:40.162Z,93120.83
2018-03-11T23:37:06.576Z,93117.59
2018-03-11T23:39:32.928Z,93117.55
2018-03-11T23:41:59.257Z,93130.95
2018-03-11T23:44:25.754Z,93132.36
2018-03-11T23:46:52.120Z,93125.00
2018-03-11T23:49:18.437Z,93129.53
2018-03-11T23:51:44.810Z,93136.29
2018-03-11T23:54:11.105Z,93142.31
2018-03-11T23:56:37.552Z,93146.69
2018-03-11T23:59:03.930Z,93146.14
